sensor_id;sensor_type;location;lat;lon;timestamp;P1;durP1;ratioP1;P2;durP2;ratioP2
14518;SDS011;7346;50.846;4.388;2022-07-30T00:00:59;14.40;;;5.05;;
14518;SDS011;7346;50.846;4.388;2022-07-30T00:03:26;8.43;;;4.90;;
14518;SDS011;7346;50.846;4.388;2022-07-30T00:05:54;11.65;;;4.75;;
14518;SDS011;7346;50.846;4.388;2022-07-30T00:08:21;14.10;;;4.80;;
14518;SDS011;7346;50.846;4.388;2022-07-30T00:10:50;9.77;;;4.47;;
14518;SDS011;7346;50.846;4.388;2022-07-30T00:13:17;10.25;;;4.88;;
14518;SDS011;7346;50.846;4.388;2022-07-30T00:15:44;13.48;;;5.13;;
14518;SDS011;7346;50.846;4.388;2022-07-30T00:18:11;14.00;;;4.55;;
14518;SDS011;7346;50.846;4.388;2022-07-30T00:20:38;11.93;;;4.72;;
14518;SDS011;7346;50.846;4.388;2022-07-30T00:23:05;10.98;;;5.32;;
14518;SDS011;7346;50.846;4.388;2022-07-30T00:25:32;16.02;;;6.10;;
14518;SDS011;7346;50.846;4.388;2022-07-30T00:28:01;16.05;;;5.85;;
14518;SDS011;7346;50.846;4.388;2022-07-30T00:30:28;15.93;;;4.85;;
14518;SDS011;7346;50.846;4.388;2022-07-30T00:32:55;13.18;;;6.10;;
14518;SDS011;7346;50.846;4.388;2022-07-30T00:35:22;12.23;;;5.60;;
14518;SDS011;7346;50.846;4.388;2022-07-30T00:37:49;14.40;;;6.03;;
14518;SDS011;7346;50.846;4.388;2022-07-30T00:40:16;13.15;;;5.85;;
14518;SDS011;7346;50.846;4.388;2022-07-30T00:42:43;10.85;;;6.00;;
14518;SDS011;7346;50.846;4.388;2022-07-30T00:45:13;14.10;;;6.20;;
14518;SDS011;7346;50.846;4.388;2022-07-30T00:47:41;14.10;;;5.78;;
14518;SDS011;7346;50.846;4.388;2022-07-30T00:50:09;13.98;;;6.13;;
14518;SDS011;7346;50.846;4.388;2022-07-30T00:52:37;14.57;;;6.40;;
14518;SDS011;7346;50.846;4.388;2022-07-30T00:55:06;13.90;;;5.82;;
14518;SDS011;7346;50.846;4.388;2022-07-30T00:57:35;13.70;;;6.10;;
14518;SDS011;7346;50.846;4.388;2022-07-30T01:00:03;13.98;;;6.22;;
14518;SDS011;7346;50.846;4.388;2022-07-30T01:02:34;17.17;;;7.00;;
14518;SDS011;7346;50.846;4.388;2022-07-30T01:05:01;12.57;;;6.60;;
14518;SDS011;7346;50.846;4.388;2022-07-30T01:07:28;17.20;;;7.57;;
14518;SDS011;7346;50.846;4.388;2022-07-30T01:09:55;14.30;;;6.63;;
14518;SDS011;7346;50.846;4.388;2022-07-30T01:12:22;14.05;;;7.45;;
14518;SDS011;7346;50.846;4.388;2022-07-30T01:14:52;15.35;;;7.45;;
14518;SDS011;7346;50.846;4.388;2022-07-30T01:17:20;20.02;;;7.57;;
14518;SDS011;7346;50.846;4.388;2022-07-30T01:19:49;18.80;;;8.02;;
14518;SDS011;7346;50.846;4.388;2022-07-30T01:22:20;17.02;;;8.00;;
14518;SDS011;7346;50.846;4.388;2022-07-30T01:25:03;13.75;;;7.53;;
14518;SDS011;7346;50.846;4.388;2022-07-30T01:27:37;17.63;;;8.27;;
14518;SDS011;7346;50.846;4.388;2022-07-30T01:30:07;13.55;;;8.38;;
14518;SDS011;7346;50.846;4.388;2022-07-30T01:32:37;13.13;;;8.15;;
14518;SDS011;7346;50.846;4.388;2022-07-30T01:35:08;22.92;;;9.00;;
14518;SDS011;7346;50.846;4.388;2022-07-30T01:37:37;13.50;;;8.45;;
14518;SDS011;7346;50.846;4.388;2022-07-30T01:40:05;17.27;;;8.57;;
14518;SDS011;7346;50.846;4.388;2022-07-30T01:42:34;15.00;;;8.38;;
14518;SDS011;7346;50.846;4.388;2022-07-30T01:45:04;13.60;;;8.13;;
14518;SDS011;7346;50.846;4.388;2022-07-30T01:47:34;17.48;;;9.02;;
14518;SDS011;7346;50.846;4.388;2022-07-30T01:50:02;17.42;;;8.77;;
14518;SDS011;7346;50.846;4.388;2022-07-30T01:52:32;16.05;;;9.20;;
14518;SDS011;7346;50.846;4.388;2022-07-30T01:55:02;19.23;;;9.75;;
14518;SDS011;7346;50.846;4.388;2022-07-30T01:57:29;11.45;;;8.35;;
14518;SDS011;7346;50.846;4.388;2022-07-30T02:00:00;17.92;;;9.50;;
14518;SDS011;7346;50.846;4.388;2022-07-30T02:02:29;17.92;;;8.18;;
14518;SDS011;7346;50.846;4.388;2022-07-30T02:04:56;16.70;;;8.75;;
14518;SDS011;7346;50.846;4.388;2022-07-30T02:07:26;17.38;;;8.95;;
14518;SDS011;7346;50.846;4.388;2022-07-30T02:09:58;14.52;;;8.75;;
14518;SDS011;7346;50.846;4.388;2022-07-30T02:12:29;18.90;;;8.98;;
14518;SDS011;7346;50.846;4.388;2022-07-30T02:15:06;18.20;;;9.15;;
14518;SDS011;7346;50.846;4.388;2022-07-30T02:17:38;15.05;;;8.38;;
14518;SDS011;7346;50.846;4.388;2022-07-30T02:20:08;22.58;;;9.27;;
14518;SDS011;7346;50.846;4.388;2022-07-30T02:22:38;16.73;;;8.93;;
14518;SDS011;7346;50.846;4.388;2022-07-30T02:25:08;15.38;;;8.18;;
14518;SDS011;7346;50.846;4.388;2022-07-30T02:27:38;16.73;;;8.10;;
14518;SDS011;7346;50.846;4.388;2022-07-30T02:30:09;12.30;;;7.65;;
14518;SDS011;7346;50.846;4.388;2022-07-30T02:32:37;14.30;;;7.95;;
14518;SDS011;7346;50.846;4.388;2022-07-30T02:35:09;17.05;;;8.13;;
14518;SDS011;7346;50.846;4.388;2022-07-30T02:37:39;14.07;;;7.38;;
14518;SDS011;7346;50.846;4.388;2022-07-30T02:40:08;14.23;;;8.07;;
14518;SDS011;7346;50.846;4.388;2022-07-30T02:42:38;14.32;;;7.40;;
14518;SDS011;7346;50.846;4.388;2022-07-30T02:45:09;13.43;;;8.35;;
14518;SDS011;7346;50.846;4.388;2022-07-30T02:47:37;19.38;;;8.13;;
14518;SDS011;7346;50.846;4.388;2022-07-30T02:50:06;15.07;;;8.48;;
14518;SDS011;7346;50.846;4.388;2022-07-30T02:52:36;16.33;;;8.23;;
14518;SDS011;7346;50.846;4.388;2022-07-30T02:55:05;15.25;;;9.40;;
14518;SDS011;7346;50.846;4.388;2022-07-30T02:57:34;17.10;;;9.55;;
14518;SDS011;7346;50.846;4.388;2022-07-30T03:00:03;17.77;;;8.95;;
14518;SDS011;7346;50.846;4.388;2022-07-30T03:02:32;15.90;;;9.32;;
14518;SDS011;7346;50.846;4.388;2022-07-30T03:05:00;15.73;;;9.77;;
14518;SDS011;7346;50.846;4.388;2022-07-30T03:07:31;18.80;;;9.02;;
14518;SDS011;7346;50.846;4.388;2022-07-30T03:10:00;14.07;;;9.63;;
14518;SDS011;7346;50.846;4.388;2022-07-30T03:12:29;13.43;;;9.27;;
14518;SDS011;7346;50.846;4.388;2022-07-30T03:14:58;15.95;;;9.77;;
14518;SDS011;7346;50.846;4.388;2022-07-30T03:17:27;14.82;;;9.57;;
14518;SDS011;7346;50.846;4.388;2022-07-30T03:19:59;15.90;;;9.52;;
14518;SDS011;7346;50.846;4.388;2022-07-30T03:22:28;12.85;;;9.15;;
14518;SDS011;7346;50.846;4.388;2022-07-30T03:24:56;14.63;;;10.32;;
14518;SDS011;7346;50.846;4.388;2022-07-30T03:27:24;16.55;;;10.13;;
14518;SDS011;7346;50.846;4.388;2022-07-30T03:29:51;17.42;;;10.15;;
14518;SDS011;7346;50.846;4.388;2022-07-30T03:32:19;18.23;;;10.05;;
14518;SDS011;7346;50.846;4.388;2022-07-30T03:34:47;18.10;;;10.13;;
14518;SDS011;7346;50.846;4.388;2022-07-30T03:37:17;17.13;;;10.02;;
14518;SDS011;7346;50.846;4.388;2022-07-30T03:39:45;17.27;;;9.88;;
14518;SDS011;7346;50.846;4.388;2022-07-30T03:42:12;19.67;;;10.98;;
14518;SDS011;7346;50.846;4.388;2022-07-30T03:44:41;19.52;;;10.80;;
14518;SDS011;7346;50.846;4.388;2022-07-30T03:47:09;15.63;;;10.65;;
14518;SDS011;7346;50.846;4.388;2022-07-30T03:49:39;14.50;;;10.50;;
14518;SDS011;7346;50.846;4.388;2022-07-30T03:52:07;15.63;;;10.32;;
14518;SDS011;7346;50.846;4.388;2022-07-30T03:54:36;17.02;;;10.30;;
14518;SDS011;7346;50.846;4.388;2022-07-30T03:57:03;19.80;;;11.02;;
14518;SDS011;7346;50.846;4.388;2022-07-30T03:59:30;18.83;;;11.00;;
14518;SDS011;7346;50.846;4.388;2022-07-30T04:01:58;18.70;;;12.13;;
14518;SDS011;7346;50.846;4.388;2022-07-30T04:04:26;17.90;;;11.20;;
14518;SDS011;7346;50.846;4.388;2022-07-30T04:06:54;15.57;;;11.65;;
14518;SDS011;7346;50.846;4.388;2022-07-30T04:09:22;17.70;;;12.20;;
14518;SDS011;7346;50.846;4.388;2022-07-30T04:11:50;18.88;;;13.13;;
14518;SDS011;7346;50.846;4.388;2022-07-30T04:14:17;18.17;;;13.25;;
14518;SDS011;7346;50.846;4.388;2022-07-30T04:16:45;19.65;;;12.55;;
14518;SDS011;7346;50.846;4.388;2022-07-30T04:19:17;25.02;;;13.65;;
14518;SDS011;7346;50.846;4.388;2022-07-30T04:21:48;18.02;;;14.75;;
14518;SDS011;7346;50.846;4.388;2022-07-30T04:24:16;22.15;;;14.40;;
14518;SDS011;7346;50.846;4.388;2022-07-30T04:26:45;26.77;;;15.10;;
14518;SDS011;7346;50.846;4.388;2022-07-30T04:29:15;19.77;;;15.70;;
14518;SDS011;7346;50.846;4.388;2022-07-30T04:31:43;21.95;;;16.08;;
14518;SDS011;7346;50.846;4.388;2022-07-30T04:34:11;27.73;;;17.15;;
14518;SDS011;7346;50.846;4.388;2022-07-30T04:36:39;23.58;;;16.88;;
14518;SDS011;7346;50.846;4.388;2022-07-30T04:39:07;27.60;;;17.95;;
14518;SDS011;7346;50.846;4.388;2022-07-30T04:41:34;26.70;;;17.73;;
14518;SDS011;7346;50.846;4.388;2022-07-30T04:44:01;23.90;;;16.58;;
14518;SDS011;7346;50.846;4.388;2022-07-30T04:46:30;21.42;;;16.83;;
14518;SDS011;7346;50.846;4.388;2022-07-30T04:48:57;24.98;;;17.73;;
14518;SDS011;7346;50.846;4.388;2022-07-30T04:51:24;28.85;;;17.55;;
14518;SDS011;7346;50.846;4.388;2022-07-30T04:53:53;26.05;;;17.88;;
14518;SDS011;7346;50.846;4.388;2022-07-30T04:56:23;28.17;;;17.23;;
14518;SDS011;7346;50.846;4.388;2022-07-30T04:58:51;23.63;;;16.67;;
14518;SDS011;7346;50.846;4.388;2022-07-30T05:01:21;21.33;;;16.10;;
14518;SDS011;7346;50.846;4.388;2022-07-30T05:03:51;21.75;;;14.60;;
14518;SDS011;7346;50.846;4.388;2022-07-30T05:06:19;21.00;;;13.40;;
14518;SDS011;7346;50.846;4.388;2022-07-30T05:08:47;17.70;;;12.95;;
14518;SDS011;7346;50.846;4.388;2022-07-30T05:11:14;18.27;;;12.68;;
14518;SDS011;7346;50.846;4.388;2022-07-30T05:13:41;18.45;;;12.20;;
14518;SDS011;7346;50.846;4.388;2022-07-30T05:16:09;17.02;;;12.75;;
14518;SDS011;7346;50.846;4.388;2022-07-30T05:18:36;20.23;;;11.75;;
14518;SDS011;7346;50.846;4.388;2022-07-30T05:21:05;16.45;;;10.27;;
14518;SDS011;7346;50.846;4.388;2022-07-30T05:23:33;15.68;;;10.82;;
14518;SDS011;7346;50.846;4.388;2022-07-30T05:26:00;15.60;;;11.63;;
14518;SDS011;7346;50.846;4.388;2022-07-30T05:28:27;14.95;;;11.40;;
14518;SDS011;7346;50.846;4.388;2022-07-30T05:30:54;16.83;;;11.95;;
14518;SDS011;7346;50.846;4.388;2022-07-30T05:33:22;18.52;;;12.00;;
14518;SDS011;7346;50.846;4.388;2022-07-30T05:35:49;17.40;;;10.55;;
14518;SDS011;7346;50.846;4.388;2022-07-30T05:38:17;20.60;;;10.75;;
14518;SDS011;7346;50.846;4.388;2022-07-30T05:40:44;11.45;;;10.10;;
14518;SDS011;7346;50.846;4.388;2022-07-30T05:43:11;14.15;;;10.48;;
14518;SDS011;7346;50.846;4.388;2022-07-30T05:45:38;16.05;;;9.70;;
14518;SDS011;7346;50.846;4.388;2022-07-30T05:48:05;13.13;;;8.55;;
14518;SDS011;7346;50.846;4.388;2022-07-30T05:50:32;14.40;;;9.15;;
14518;SDS011;7346;50.846;4.388;2022-07-30T05:52:59;15.95;;;8.63;;
14518;SDS011;7346;50.846;4.388;2022-07-30T05:55:28;15.63;;;8.73;;
14518;SDS011;7346;50.846;4.388;2022-07-30T05:57:55;12.85;;;8.82;;
14518;SDS011;7346;50.846;4.388;2022-07-30T06:00:21;14.95;;;8.15;;
14518;SDS011;7346;50.846;4.388;2022-07-30T06:02:48;14.20;;;8.52;;
14518;SDS011;7346;50.846;4.388;2022-07-30T06:05:15;13.13;;;8.10;;
14518;SDS011;7346;50.846;4.388;2022-07-30T06:07:42;16.08;;;8.13;;
14518;SDS011;7346;50.846;4.388;2022-07-30T06:10:09;18.20;;;8.43;;
14518;SDS011;7346;50.846;4.388;2022-07-30T06:12:38;14.65;;;8.40;;
14518;SDS011;7346;50.846;4.388;2022-07-30T06:15:07;13.70;;;7.50;;
14518;SDS011;7346;50.846;4.388;2022-07-30T06:17:39;12.68;;;7.18;;
14518;SDS011;7346;50.846;4.388;2022-07-30T06:20:07;15.38;;;7.63;;
14518;SDS011;7346;50.846;4.388;2022-07-30T06:22:35;15.40;;;7.38;;
14518;SDS011;7346;50.846;4.388;2022-07-30T06:25:02;12.00;;;7.60;;
14518;SDS011;7346;50.846;4.388;2022-07-30T06:27:29;14.20;;;7.65;;
14518;SDS011;7346;50.846;4.388;2022-07-30T06:29:58;14.55;;;8.13;;
14518;SDS011;7346;50.846;4.388;2022-07-30T06:32:25;15.32;;;7.47;;
14518;SDS011;7346;50.846;4.388;2022-07-30T06:34:52;14.95;;;8.57;;
14518;SDS011;7346;50.846;4.388;2022-07-30T06:37:19;11.55;;;7.07;;
14518;SDS011;7346;50.846;4.388;2022-07-30T06:39:46;12.63;;;7.05;;
14518;SDS011;7346;50.846;4.388;2022-07-30T06:42:13;10.10;;;7.03;;
14518;SDS011;7346;50.846;4.388;2022-07-30T06:44:40;13.02;;;7.43;;
14518;SDS011;7346;50.846;4.388;2022-07-30T06:47:09;20.35;;;7.70;;
14518;SDS011;7346;50.846;4.388;2022-07-30T06:49:36;10.80;;;6.75;;
14518;SDS011;7346;50.846;4.388;2022-07-30T06:52:03;9.15;;;6.78;;
14518;SDS011;7346;50.846;4.388;2022-07-30T06:54:30;13.38;;;6.53;;
14518;SDS011;7346;50.846;4.388;2022-07-30T06:56:57;8.88;;;6.00;;
14518;SDS011;7346;50.846;4.388;2022-07-30T06:59:24;11.88;;;6.03;;
14518;SDS011;7346;50.846;4.388;2022-07-30T07:01:52;9.43;;;5.00;;
14518;SDS011;7346;50.846;4.388;2022-07-30T07:04:20;9.30;;;4.60;;
14518;SDS011;7346;50.846;4.388;2022-07-30T07:06:47;10.65;;;3.95;;
14518;SDS011;7346;50.846;4.388;2022-07-30T07:09:14;6.55;;;4.15;;
14518;SDS011;7346;50.846;4.388;2022-07-30T07:11:41;10.77;;;4.03;;
14518;SDS011;7346;50.846;4.388;2022-07-30T07:14:07;6.10;;;3.10;;
14518;SDS011;7346;50.846;4.388;2022-07-30T07:16:34;8.45;;;2.92;;
14518;SDS011;7346;50.846;4.388;2022-07-30T07:19:01;7.07;;;2.88;;
14518;SDS011;7346;50.846;4.388;2022-07-30T07:21:30;6.05;;;2.67;;
14518;SDS011;7346;50.846;4.388;2022-07-30T07:23:57;4.47;;;2.25;;
14518;SDS011;7346;50.846;4.388;2022-07-30T07:26:26;6.82;;;2.35;;
14518;SDS011;7346;50.846;4.388;2022-07-30T07:28:53;5.07;;;2.30;;
14518;SDS011;7346;50.846;4.388;2022-07-30T07:31:20;7.22;;;2.85;;
14518;SDS011;7346;50.846;4.388;2022-07-30T07:33:48;6.30;;;2.78;;
14518;SDS011;7346;50.846;4.388;2022-07-30T07:36:15;5.15;;;2.40;;
14518;SDS011;7346;50.846;4.388;2022-07-30T07:38:44;6.10;;;2.47;;
14518;SDS011;7346;50.846;4.388;2022-07-30T07:41:11;5.00;;;2.70;;
14518;SDS011;7346;50.846;4.388;2022-07-30T07:43:38;7.68;;;2.85;;
14518;SDS011;7346;50.846;4.388;2022-07-30T07:46:05;7.85;;;2.78;;
14518;SDS011;7346;50.846;4.388;2022-07-30T07:48:32;8.15;;;2.95;;
14518;SDS011;7346;50.846;4.388;2022-07-30T07:50:59;4.88;;;2.45;;
14518;SDS011;7346;50.846;4.388;2022-07-30T07:53:26;7.18;;;2.65;;
14518;SDS011;7346;50.846;4.388;2022-07-30T07:55:55;5.93;;;2.10;;
14518;SDS011;7346;50.846;4.388;2022-07-30T07:58:24;3.10;;;1.48;;
14518;SDS011;7346;50.846;4.388;2022-07-30T08:00:52;7.20;;;2.70;;
14518;SDS011;7346;50.846;4.388;2022-07-30T08:03:19;5.32;;;2.53;;
14518;SDS011;7346;50.846;4.388;2022-07-30T08:05:46;7.38;;;2.80;;
14518;SDS011;7346;50.846;4.388;2022-07-30T08:08:12;5.75;;;2.53;;
14518;SDS011;7346;50.846;4.388;2022-07-30T08:10:39;6.75;;;2.60;;
14518;SDS011;7346;50.846;4.388;2022-07-30T08:13:08;7.13;;;2.33;;
14518;SDS011;7346;50.846;4.388;2022-07-30T08:15:34;9.05;;;2.67;;
14518;SDS011;7346;50.846;4.388;2022-07-30T08:18:01;6.90;;;2.80;;
14518;SDS011;7346;50.846;4.388;2022-07-30T08:20:29;4.78;;;2.38;;
14518;SDS011;7346;50.846;4.388;2022-07-30T08:22:56;5.22;;;2.33;;
14518;SDS011;7346;50.846;4.388;2022-07-30T08:25:23;6.95;;;2.90;;
14518;SDS011;7346;50.846;4.388;2022-07-30T08:27:51;8.38;;;2.95;;
14518;SDS011;7346;50.846;4.388;2022-07-30T08:30:19;7.80;;;2.58;;
14518;SDS011;7346;50.846;4.388;2022-07-30T08:32:46;5.78;;;2.50;;
14518;SDS011;7346;50.846;4.388;2022-07-30T08:35:13;5.65;;;2.10;;
14518;SDS011;7346;50.846;4.388;2022-07-30T08:37:40;6.25;;;2.03;;
14518;SDS011;7346;50.846;4.388;2022-07-30T08:40:08;5.07;;;1.52;;
14518;SDS011;7346;50.846;4.388;2022-07-30T08:42:36;4.57;;;1.40;;
14518;SDS011;7346;50.846;4.388;2022-07-30T08:45:04;4.65;;;1.65;;
14518;SDS011;7346;50.846;4.388;2022-07-30T08:47:33;4.72;;;1.70;;
14518;SDS011;7346;50.846;4.388;2022-07-30T08:50:01;3.70;;;1.70;;
14518;SDS011;7346;50.846;4.388;2022-07-30T08:52:30;4.90;;;1.73;;
14518;SDS011;7346;50.846;4.388;2022-07-30T08:54:58;5.78;;;1.58;;
14518;SDS011;7346;50.846;4.388;2022-07-30T08:57:25;4.20;;;1.42;;
14518;SDS011;7346;50.846;4.388;2022-07-30T08:59:54;4.20;;;1.48;;
14518;SDS011;7346;50.846;4.388;2022-07-30T09:02:22;4.65;;;1.50;;
14518;SDS011;7346;50.846;4.388;2022-07-30T09:04:50;3.92;;;1.70;;
14518;SDS011;7346;50.846;4.388;2022-07-30T09:07:17;6.47;;;1.63;;
14518;SDS011;7346;50.846;4.388;2022-07-30T09:09:44;3.33;;;1.40;;
14518;SDS011;7346;50.846;4.388;2022-07-30T09:12:33;4.28;;;1.58;;
14518;SDS011;7346;50.846;4.388;2022-07-30T09:15:09;10.25;;;2.10;;
14518;SDS011;7346;50.846;4.388;2022-07-30T09:17:46;6.25;;;1.65;;
14518;SDS011;7346;50.846;4.388;2022-07-30T09:20:20;5.85;;;1.73;;
14518;SDS011;7346;50.846;4.388;2022-07-30T09:22:49;3.45;;;1.42;;
14518;SDS011;7346;50.846;4.388;2022-07-30T09:25:31;2.60;;;1.33;;
14518;SDS011;7346;50.846;4.388;2022-07-30T09:28:00;4.30;;;1.70;;
14518;SDS011;7346;50.846;4.388;2022-07-30T09:30:28;7.43;;;2.00;;
14518;SDS011;7346;50.846;4.388;2022-07-30T09:33:09;4.45;;;1.65;;
14518;SDS011;7346;50.846;4.388;2022-07-30T09:35:38;7.28;;;1.48;;
14518;SDS011;7346;50.846;4.388;2022-07-30T09:38:06;5.53;;;2.85;;
14518;SDS011;7346;50.846;4.388;2022-07-30T09:40:34;7.43;;;1.95;;
14518;SDS011;7346;50.846;4.388;2022-07-30T09:43:01;4.10;;;1.23;;
14518;SDS011;7346;50.846;4.388;2022-07-30T09:45:30;6.25;;;1.67;;
14518;SDS011;7346;50.846;4.388;2022-07-30T09:47:57;7.32;;;2.03;;
14518;SDS011;7346;50.846;4.388;2022-07-30T09:50:24;5.53;;;1.65;;
14518;SDS011;7346;50.846;4.388;2022-07-30T09:52:53;5.80;;;1.50;;
14518;SDS011;7346;50.846;4.388;2022-07-30T09:55:30;5.32;;;1.50;;
14518;SDS011;7346;50.846;4.388;2022-07-30T09:57:59;5.35;;;1.58;;
14518;SDS011;7346;50.846;4.388;2022-07-30T10:00:28;5.05;;;1.88;;
14518;SDS011;7346;50.846;4.388;2022-07-30T10:02:57;4.88;;;1.85;;
14518;SDS011;7346;50.846;4.388;2022-07-30T10:05:25;5.90;;;1.67;;
14518;SDS011;7346;50.846;4.388;2022-07-30T10:07:55;6.10;;;1.60;;
14518;SDS011;7346;50.846;4.388;2022-07-30T10:10:23;6.43;;;1.92;;
14518;SDS011;7346;50.846;4.388;2022-07-30T10:12:53;3.63;;;1.65;;
14518;SDS011;7346;50.846;4.388;2022-07-30T10:15:23;7.75;;;1.50;;
14518;SDS011;7346;50.846;4.388;2022-07-30T10:17:52;3.95;;;1.70;;
14518;SDS011;7346;50.846;4.388;2022-07-30T10:20:20;4.30;;;1.60;;
14518;SDS011;7346;50.846;4.388;2022-07-30T10:22:47;5.38;;;1.98;;
14518;SDS011;7346;50.846;4.388;2022-07-30T10:25:17;3.30;;;1.50;;
14518;SDS011;7346;50.846;4.388;2022-07-30T10:27:45;3.42;;;1.60;;
14518;SDS011;7346;50.846;4.388;2022-07-30T10:30:13;7.32;;;1.70;;
14518;SDS011;7346;50.846;4.388;2022-07-30T10:32:40;2.90;;;1.58;;
14518;SDS011;7346;50.846;4.388;2022-07-30T10:35:08;4.70;;;1.58;;
14518;SDS011;7346;50.846;4.388;2022-07-30T10:37:36;5.22;;;1.50;;
14518;SDS011;7346;50.846;4.388;2022-07-30T10:40:09;8.27;;;1.85;;
14518;SDS011;7346;50.846;4.388;2022-07-30T10:43:02;3.72;;;1.65;;
14518;SDS011;7346;50.846;4.388;2022-07-30T10:45:44;4.32;;;1.50;;
14518;SDS011;7346;50.846;4.388;2022-07-30T10:48:19;3.20;;;1.33;;
14518;SDS011;7346;50.846;4.388;2022-07-30T10:50:50;6.43;;;2.03;;
14518;SDS011;7346;50.846;4.388;2022-07-30T10:53:31;5.45;;;2.63;;
14518;SDS011;7346;50.846;4.388;2022-07-30T10:56:12;6.78;;;1.38;;
14518;SDS011;7346;50.846;4.388;2022-07-30T10:58:57;5.13;;;1.55;;
14518;SDS011;7346;50.846;4.388;2022-07-30T11:04:33;5.90;;;1.95;;
14518;SDS011;7346;50.846;4.388;2022-07-30T11:09:53;5.97;;;1.90;;
14518;SDS011;7346;50.846;4.388;2022-07-30T11:15:21;7.20;;;1.88;;
14518;SDS011;7346;50.846;4.388;2022-07-30T11:17:58;5.07;;;2.10;;
14518;SDS011;7346;50.846;4.388;2022-07-30T11:20:30;5.38;;;2.13;;
14518;SDS011;7346;50.846;4.388;2022-07-30T11:23:07;5.70;;;2.38;;
14518;SDS011;7346;50.846;4.388;2022-07-30T11:25:58;4.45;;;1.77;;
14518;SDS011;7346;50.846;4.388;2022-07-30T11:28:35;3.35;;;1.60;;
14518;SDS011;7346;50.846;4.388;2022-07-30T11:33:53;9.57;;;2.03;;
14518;SDS011;7346;50.846;4.388;2022-07-30T11:37:04;4.75;;;1.90;;
14518;SDS011;7346;50.846;4.388;2022-07-30T11:42:36;4.47;;;1.75;;
14518;SDS011;7346;50.846;4.388;2022-07-30T11:47:55;5.22;;;1.42;;
14518;SDS011;7346;50.846;4.388;2022-07-30T11:50:25;5.22;;;1.67;;
14518;SDS011;7346;50.846;4.388;2022-07-30T11:52:55;6.80;;;1.85;;
14518;SDS011;7346;50.846;4.388;2022-07-30T11:55:24;5.00;;;1.67;;
14518;SDS011;7346;50.846;4.388;2022-07-30T11:57:53;2.45;;;1.50;;
14518;SDS011;7346;50.846;4.388;2022-07-30T12:00:20;6.15;;;1.80;;
14518;SDS011;7346;50.846;4.388;2022-07-30T12:02:48;6.88;;;1.85;;
14518;SDS011;7346;50.846;4.388;2022-07-30T12:05:21;4.70;;;1.73;;
14518;SDS011;7346;50.846;4.388;2022-07-30T12:07:54;3.92;;;1.92;;
14518;SDS011;7346;50.846;4.388;2022-07-30T12:10:23;4.30;;;1.60;;
14518;SDS011;7346;50.846;4.388;2022-07-30T12:12:50;5.93;;;1.83;;
14518;SDS011;7346;50.846;4.388;2022-07-30T12:15:27;2.78;;;1.58;;
14518;SDS011;7346;50.846;4.388;2022-07-30T12:17:55;4.13;;;1.63;;
14518;SDS011;7346;50.846;4.388;2022-07-30T12:20:23;5.25;;;1.38;;
14518;SDS011;7346;50.846;4.388;2022-07-30T12:22:50;4.03;;;1.67;;
14518;SDS011;7346;50.846;4.388;2022-07-30T12:25:17;4.20;;;1.30;;
14518;SDS011;7346;50.846;4.388;2022-07-30T12:27:45;3.15;;;1.20;;
14518;SDS011;7346;50.846;4.388;2022-07-30T12:30:13;6.38;;;1.50;;
14518;SDS011;7346;50.846;4.388;2022-07-30T12:32:41;6.78;;;2.30;;
14518;SDS011;7346;50.846;4.388;2022-07-30T12:35:09;3.65;;;1.70;;
14518;SDS011;7346;50.846;4.388;2022-07-30T12:37:38;4.57;;;1.50;;
14518;SDS011;7346;50.846;4.388;2022-07-30T12:40:06;3.67;;;1.30;;
14518;SDS011;7346;50.846;4.388;2022-07-30T12:42:35;5.50;;;1.65;;
14518;SDS011;7346;50.846;4.388;2022-07-30T12:45:04;6.22;;;1.48;;
14518;SDS011;7346;50.846;4.388;2022-07-30T12:47:32;3.80;;;1.35;;
14518;SDS011;7346;50.846;4.388;2022-07-30T12:50:00;4.03;;;1.45;;
14518;SDS011;7346;50.846;4.388;2022-07-30T12:52:31;2.22;;;1.20;;
14518;SDS011;7346;50.846;4.388;2022-07-30T12:55:01;2.10;;;1.35;;
14518;SDS011;7346;50.846;4.388;2022-07-30T13:00:20;3.90;;;1.33;;
14518;SDS011;7346;50.846;4.388;2022-07-30T13:02:48;3.47;;;1.33;;
14518;SDS011;7346;50.846;4.388;2022-07-30T13:05:15;6.47;;;1.80;;
14518;SDS011;7346;50.846;4.388;2022-07-30T13:07:52;4.68;;;1.42;;
14518;SDS011;7346;50.846;4.388;2022-07-30T13:10:21;4.93;;;1.40;;
14518;SDS011;7346;50.846;4.388;2022-07-30T13:12:49;3.22;;;1.45;;
14518;SDS011;7346;50.846;4.388;2022-07-30T13:15:16;5.65;;;1.40;;
14518;SDS011;7346;50.846;4.388;2022-07-30T13:17:43;5.32;;;1.38;;
14518;SDS011;7346;50.846;4.388;2022-07-30T13:20:11;2.85;;;1.25;;
14518;SDS011;7346;50.846;4.388;2022-07-30T13:22:39;4.10;;;1.20;;
14518;SDS011;7346;50.846;4.388;2022-07-30T13:25:06;5.90;;;1.65;;
14518;SDS011;7346;50.846;4.388;2022-07-30T13:27:35;5.30;;;1.48;;
14518;SDS011;7346;50.846;4.388;2022-07-30T13:30:03;4.70;;;1.50;;
14518;SDS011;7346;50.846;4.388;2022-07-30T13:32:30;3.75;;;1.30;;
14518;SDS011;7346;50.846;4.388;2022-07-30T13:34:57;3.55;;;1.40;;
14518;SDS011;7346;50.846;4.388;2022-07-30T13:37:24;5.03;;;1.20;;
14518;SDS011;7346;50.846;4.388;2022-07-30T13:39:51;5.07;;;1.50;;
14518;SDS011;7346;50.846;4.388;2022-07-30T13:42:18;3.63;;;1.30;;
14518;SDS011;7346;50.846;4.388;2022-07-30T13:44:46;3.47;;;1.50;;
14518;SDS011;7346;50.846;4.388;2022-07-30T13:47:22;3.38;;;1.40;;
14518;SDS011;7346;50.846;4.388;2022-07-30T13:49:55;3.10;;;1.27;;
14518;SDS011;7346;50.846;4.388;2022-07-30T13:52:22;2.33;;;1.13;;
14518;SDS011;7346;50.846;4.388;2022-07-30T13:54:49;3.75;;;1.40;;
14518;SDS011;7346;50.846;4.388;2022-07-30T13:57:17;2.95;;;1.60;;
14518;SDS011;7346;50.846;4.388;2022-07-30T13:59:44;6.50;;;1.70;;
14518;SDS011;7346;50.846;4.388;2022-07-30T14:02:13;3.30;;;1.40;;
14518;SDS011;7346;50.846;4.388;2022-07-30T14:04:40;2.85;;;1.45;;
14518;SDS011;7346;50.846;4.388;2022-07-30T14:07:07;6.60;;;1.50;;
14518;SDS011;7346;50.846;4.388;2022-07-30T14:09:33;6.47;;;1.20;;
14518;SDS011;7346;50.846;4.388;2022-07-30T14:12:00;4.90;;;1.33;;
14518;SDS011;7346;50.846;4.388;2022-07-30T14:14:27;4.43;;;1.45;;
14518;SDS011;7346;50.846;4.388;2022-07-30T14:16:56;10.75;;;1.58;;
14518;SDS011;7346;50.846;4.388;2022-07-30T14:19:23;5.70;;;1.50;;
14518;SDS011;7346;50.846;4.388;2022-07-30T14:21:50;5.95;;;1.60;;
14518;SDS011;7346;50.846;4.388;2022-07-30T14:24:18;4.30;;;1.33;;
14518;SDS011;7346;50.846;4.388;2022-07-30T14:26:46;7.20;;;1.48;;
14518;SDS011;7346;50.846;4.388;2022-07-30T14:29:13;3.67;;;1.45;;
14518;SDS011;7346;50.846;4.388;2022-07-30T14:31:40;5.45;;;1.50;;
14518;SDS011;7346;50.846;4.388;2022-07-30T14:34:08;4.50;;;2.30;;
14518;SDS011;7346;50.846;4.388;2022-07-30T14:36:35;6.55;;;1.40;;
14518;SDS011;7346;50.846;4.388;2022-07-30T14:39:04;2.72;;;1.17;;
14518;SDS011;7346;50.846;4.388;2022-07-30T14:41:31;2.78;;;1.25;;
14518;SDS011;7346;50.846;4.388;2022-07-30T14:43:58;4.80;;;1.10;;
14518;SDS011;7346;50.846;4.388;2022-07-30T14:46:26;5.40;;;1.10;;
14518;SDS011;7346;50.846;4.388;2022-07-30T14:48:53;3.05;;;1.27;;
14518;SDS011;7346;50.846;4.388;2022-07-30T14:51:21;3.17;;;1.27;;
14518;SDS011;7346;50.846;4.388;2022-07-30T14:53:48;4.50;;;1.30;;
14518;SDS011;7346;50.846;4.388;2022-07-30T14:56:15;5.13;;;1.38;;
14518;SDS011;7346;50.846;4.388;2022-07-30T14:58:43;2.45;;;1.10;;
14518;SDS011;7346;50.846;4.388;2022-07-30T15:01:10;3.65;;;1.27;;
14518;SDS011;7346;50.846;4.388;2022-07-30T15:03:37;7.10;;;1.00;;
14518;SDS011;7346;50.846;4.388;2022-07-30T15:06:04;4.30;;;1.05;;
14518;SDS011;7346;50.846;4.388;2022-07-30T15:08:34;4.38;;;1.20;;
14518;SDS011;7346;50.846;4.388;2022-07-30T15:11:02;3.28;;;1.27;;
14518;SDS011;7346;50.846;4.388;2022-07-30T15:13:29;2.08;;;1.00;;
14518;SDS011;7346;50.846;4.388;2022-07-30T15:15:56;2.47;;;1.05;;
14518;SDS011;7346;50.846;4.388;2022-07-30T15:18:23;3.47;;;1.00;;
14518;SDS011;7346;50.846;4.388;2022-07-30T15:20:50;4.30;;;1.20;;
14518;SDS011;7346;50.846;4.388;2022-07-30T15:23:17;2.80;;;1.10;;